sensor_id;sensor_type;location;lat;lon;timestamp;pressure;altitude;pressure_sealevel;temperature;humidity
71126;BME280;58785;55.566;38.058;2023-04-07T00:00:56;101190.44;;;4.32;55.63
71126;BME280;58785;55.566;38.058;2023-04-07T00:03:21;101194.78;;;4.33;55.42
71126;BME280;58785;55.566;38.058;2023-04-07T00:05:47;101198.28;;;4.33;55.75
71126;BME280;58785;55.566;38.058;2023-04-07T00:08:13;101185.22;;;4.30;55.93
71126;BME280;58785;55.566;38.058;2023-04-07T00:10:40;101181.34;;;4.20;55.85
71126;BME280;58785;55.566;38.058;2023-04-07T00:13:05;101199.34;;;4.29;56.19
71126;BME280;58785;55.566;38.058;2023-04-07T00:15:31;101192.53;;;4.25;55.78
71126;BME280;58785;55.566;38.058;2023-04-07T00:17:57;101191.63;;;4.26;56.15
71126;BME280;58785;55.566;38.058;2023-04-07T00:20:22;101195.28;;;4.24;56.43
71126;BME280;58785;55.566;38.058;2023-04-07T00:22:48;101183.41;;;4.15;56.45
71126;BME280;58785;55.566;38.058;2023-04-07T00:25:14;101186.13;;;4.14;56.51
71126;BME280;58785;55.566;38.058;2023-04-07T00:27:40;101201.72;;;4.18;56.22
71126;BME280;58785;55.566;38.058;2023-04-07T00:30:06;101197.44;;;4.16;56.39
71126;BME280;58785;55.566;38.058;2023-04-07T00:32:32;101200.94;;;4.16;56.31
71126;BME280;58785;55.566;38.058;2023-04-07T00:34:57;101200.09;;;4.16;56.07
71126;BME280;58785;55.566;38.058;2023-04-07T00:37:23;101186.34;;;4.09;56.52
71126;BME280;58785;55.566;38.058;2023-04-07T00:39:50;101185.41;;;4.10;56.18
71126;BME280;58785;55.566;38.058;2023-04-07T00:42:17;101203.84;;;4.12;56.77
71126;BME280;58785;55.566;38.058;2023-04-07T00:44:42;101194.59;;;4.03;56.47
71126;BME280;58785;55.566;38.058;2023-04-07T00:47:08;101199.97;;;4.01;56.96
71126;BME280;58785;55.566;38.058;2023-04-07T00:49:34;101200.19;;;3.97;56.78
71126;BME280;58785;55.566;38.058;2023-04-07T00:52:01;101185.84;;;3.85;56.81
71126;BME280;58785;55.566;38.058;2023-04-07T00:54:29;101200.72;;;3.86;56.80
71126;BME280;58785;55.566;38.058;2023-04-07T00:56:55;101200.91;;;3.83;57.29
71126;BME280;58785;55.566;38.058;2023-04-07T00:59:22;101201.97;;;3.79;57.37
71126;BME280;58785;55.566;38.058;2023-04-07T01:02:00;101189.09;;;3.73;57.07
71126;BME280;58785;55.566;38.058;2023-04-07T01:04:38;101194.59;;;3.68;57.23
71126;BME280;58785;55.566;38.058;2023-04-07T01:07:10;101199.50;;;3.76;57.08
71126;BME280;58785;55.566;38.058;2023-04-07T01:09:45;101194.50;;;3.70;57.15
71126;BME280;58785;55.566;38.058;2023-04-07T01:14:57;101204.22;;;3.69;57.17
71126;BME280;58785;55.566;38.058;2023-04-07T01:17:25;101202.59;;;3.67;57.15
71126;BME280;58785;55.566;38.058;2023-04-07T01:19:58;101206.94;;;3.68;57.21
71126;BME280;58785;55.566;38.058;2023-04-07T01:22:46;101211.44;;;3.66;57.37
71126;BME280;58785;55.566;38.058;2023-04-07T01:25:59;101214.22;;;3.63;57.38
71126;BME280;58785;55.566;38.058;2023-04-07T01:29:02;101196.34;;;3.51;57.29
71126;BME280;58785;55.566;38.058;2023-04-07T01:31:29;101207.63;;;3.54;57.39
71126;BME280;58785;55.566;38.058;2023-04-07T01:33:58;101205.16;;;3.51;57.82
71126;BME280;58785;55.566;38.058;2023-04-07T01:36:26;101209.69;;;3.47;57.85
71126;BME280;58785;55.566;38.058;2023-04-07T01:38:53;101205.50;;;3.43;57.60
71126;BME280;58785;55.566;38.058;2023-04-07T01:41:19;101201.38;;;3.38;58.05
71126;BME280;58785;55.566;38.058;2023-04-07T01:43:47;101201.53;;;3.35;57.70
71126;BME280;58785;55.566;38.058;2023-04-07T01:46:14;101211.22;;;3.34;58.03
71126;BME280;58785;55.566;38.058;2023-04-07T01:48:40;101195.00;;;3.25;58.00
71126;BME280;58785;55.566;38.058;2023-04-07T01:51:06;101193.38;;;3.22;58.58
71126;BME280;58785;55.566;38.058;2023-04-07T01:53:33;101195.28;;;3.18;58.33
71126;BME280;58785;55.566;38.058;2023-04-07T01:56:02;101202.34;;;3.18;58.34
71126;BME280;58785;55.566;38.058;2023-04-07T01:58:28;101206.91;;;3.14;58.73
71126;BME280;58785;55.566;38.058;2023-04-07T02:00:53;101201.81;;;3.11;58.55
71126;BME280;58785;55.566;38.058;2023-04-07T02:03:22;101212.47;;;3.08;58.28
71126;BME280;58785;55.566;38.058;2023-04-07T02:05:54;101208.13;;;3.07;58.86
71126;BME280;58785;55.566;38.058;2023-04-07T02:08:23;101216.13;;;3.06;58.71
71126;BME280;58785;55.566;38.058;2023-04-07T02:10:52;101200.72;;;2.97;58.98
71126;BME280;58785;55.566;38.058;2023-04-07T02:13:19;101202.50;;;2.96;58.45
71126;BME280;58785;55.566;38.058;2023-04-07T02:15:47;101214.69;;;2.99;58.63
71126;BME280;58785;55.566;38.058;2023-04-07T02:18:14;101208.78;;;2.94;58.61
71126;BME280;58785;55.566;38.058;2023-04-07T02:20:42;101209.66;;;2.94;59.13
71126;BME280;58785;55.566;38.058;2023-04-07T02:23:09;101204.38;;;2.94;58.67
71126;BME280;58785;55.566;38.058;2023-04-07T02:25:35;101209.56;;;2.96;58.79
71126;BME280;58785;55.566;38.058;2023-04-07T02:28:04;101205.38;;;2.92;58.84
71126;BME280;58785;55.566;38.058;2023-04-07T02:30:31;101209.84;;;2.89;58.81
71126;BME280;58785;55.566;38.058;2023-04-07T02:32:57;101209.06;;;2.87;59.23
71126;BME280;58785;55.566;38.058;2023-04-07T02:35:23;101219.59;;;2.87;58.87
71126;BME280;58785;55.566;38.058;2023-04-07T02:37:49;101210.25;;;2.80;59.50
71126;BME280;58785;55.566;38.058;2023-04-07T02:40:14;101216.34;;;2.82;59.32
71126;BME280;58785;55.566;38.058;2023-04-07T02:42:40;101215.50;;;2.82;59.40
71126;BME280;58785;55.566;38.058;2023-04-07T02:45:07;101215.50;;;2.82;59.51
71126;BME280;58785;55.566;38.058;2023-04-07T02:47:34;101217.19;;;2.83;59.47
71126;BME280;58785;55.566;38.058;2023-04-07T02:50:00;101220.81;;;2.80;59.32
71126;BME280;58785;55.566;38.058;2023-04-07T02:52:25;101220.75;;;2.82;59.65
71126;BME280;58785;55.566;38.058;2023-04-07T02:54:51;101214.75;;;2.78;59.64
71126;BME280;58785;55.566;38.058;2023-04-07T02:57:17;101220.03;;;2.78;59.41
71126;BME280;58785;55.566;38.058;2023-04-07T02:59:43;101222.38;;;2.84;59.16
71126;BME280;58785;55.566;38.058;2023-04-07T03:02:08;101233.78;;;2.85;59.27
71126;BME280;58785;55.566;38.058;2023-04-07T03:04:34;101217.28;;;2.81;59.59
71126;BME280;58785;55.566;38.058;2023-04-07T03:07:00;101233.63;;;2.88;59.65
71126;BME280;58785;55.566;38.058;2023-04-07T03:09:25;101230.06;;;2.89;59.43
71126;BME280;58785;55.566;38.058;2023-04-07T03:11:51;101224.31;;;2.81;59.72
71126;BME280;58785;55.566;38.058;2023-04-07T03:14:17;101218.31;;;2.77;60.00
71126;BME280;58785;55.566;38.058;2023-04-07T03:16:42;101218.03;;;2.83;59.52
71126;BME280;58785;55.566;38.058;2023-04-07T03:19:09;101226.16;;;2.98;59.73
71126;BME280;58785;55.566;38.058;2023-04-07T03:21:36;101230.63;;;3.14;59.06
71126;BME280;58785;55.566;38.058;2023-04-07T03:24:02;101235.16;;;3.30;58.95
71126;BME280;58785;55.566;38.058;2023-04-07T03:26:27;101233.34;;;3.49;58.63
71126;BME280;58785;55.566;38.058;2023-04-07T03:28:53;101242.31;;;3.64;58.56
71126;BME280;58785;55.566;38.058;2023-04-07T03:31:19;101246.69;;;3.82;58.30
71126;BME280;58785;55.566;38.058;2023-04-07T03:33:44;101230.31;;;3.93;57.91
71126;BME280;58785;55.566;38.058;2023-04-07T03:36:10;101236.41;;;4.11;57.45
71126;BME280;58785;55.566;38.058;2023-04-07T03:38:36;101234.16;;;4.20;57.61
71126;BME280;58785;55.566;38.058;2023-04-07T03:41:01;101238.66;;;4.36;57.42
71126;BME280;58785;55.566;38.058;2023-04-07T03:43:27;101246.69;;;4.50;57.28
71126;BME280;58785;55.566;38.058;2023-04-07T03:45:53;101244.59;;;4.56;56.95
71126;BME280;58785;55.566;38.058;2023-04-07T03:48:18;101247.44;;;4.69;57.24
71126;BME280;58785;55.566;38.058;2023-04-07T03:50:45;101251.47;;;4.76;56.80
71126;BME280;58785;55.566;38.058;2023-04-07T03:53:11;101249.34;;;4.83;56.95
71126;BME280;58785;55.566;38.058;2023-04-07T03:55:39;101255.09;;;4.91;56.56
71126;BME280;58785;55.566;38.058;2023-04-07T03:58:05;101252.75;;;5.01;56.45
71126;BME280;58785;55.566;38.058;2023-04-07T04:00:31;101237.50;;;5.06;56.03
71126;BME280;58785;55.566;38.058;2023-04-07T04:02:58;101246.13;;;5.25;55.28
71126;BME280;58785;55.566;38.058;2023-04-07T04:05:23;101256.63;;;5.42;55.57
71126;BME280;58785;55.566;38.058;2023-04-07T04:07:49;101251.72;;;5.51;55.40
71126;BME280;58785;55.566;38.058;2023-04-07T04:10:20;101251.69;;;5.52;55.25
71126;BME280;58785;55.566;38.058;2023-04-07T04:12:47;101250.28;;;5.61;54.96
71126;BME280;58785;55.566;38.058;2023-04-07T04:15:13;101255.22;;;5.67;55.23
71126;BME280;58785;55.566;38.058;2023-04-07T04:17:39;101262.97;;;5.70;54.51
71126;BME280;58785;55.566;38.058;2023-04-07T04:20:06;101255.88;;;5.70;54.62
71126;BME280;58785;55.566;38.058;2023-04-07T04:22:32;101255.47;;;5.78;54.43
71126;BME280;58785;55.566;38.058;2023-04-07T04:24:58;101255.78;;;5.88;54.82
71126;BME280;58785;55.566;38.058;2023-04-07T04:27:24;101254.75;;;6.06;53.96
71126;BME280;58785;55.566;38.058;2023-04-07T04:29:49;101265.63;;;6.16;54.14
71126;BME280;58785;55.566;38.058;2023-04-07T04:32:16;101260.59;;;6.11;53.95
71126;BME280;58785;55.566;38.058;2023-04-07T04:34:42;101264.16;;;6.26;53.72
71126;BME280;58785;55.566;38.058;2023-04-07T04:37:08;101268.44;;;6.43;53.59
71126;BME280;58785;55.566;38.058;2023-04-07T04:39:34;101258.50;;;6.46;53.18
71126;BME280;58785;55.566;38.058;2023-04-07T04:41:59;101264.84;;;6.58;53.28
71126;BME280;58785;55.566;38.058;2023-04-07T04:44:26;101264.38;;;6.80;52.50
71126;BME280;58785;55.566;38.058;2023-04-07T04:46:52;101271.00;;;7.01;52.58
71126;BME280;58785;55.566;38.058;2023-04-07T04:49:18;101268.72;;;7.09;52.08
71126;BME280;58785;55.566;38.058;2023-04-07T04:51:44;101271.00;;;7.15;52.57
71126;BME280;58785;55.566;38.058;2023-04-07T04:54:10;101279.31;;;7.24;51.77
71126;BME280;58785;55.566;38.058;2023-04-07T04:56:36;101258.75;;;7.27;51.27
71126;BME280;58785;55.566;38.058;2023-04-07T04:59:02;101275.28;;;7.45;51.63
71126;BME280;58785;55.566;38.058;2023-04-07T05:01:28;101280.38;;;7.62;51.27
71126;BME280;58785;55.566;38.058;2023-04-07T05:03:54;101280.44;;;7.88;51.16
71126;BME280;58785;55.566;38.058;2023-04-07T05:06:19;101284.22;;;8.11;50.15
71126;BME280;58785;55.566;38.058;2023-04-07T05:08:45;101292.88;;;8.27;49.94
71126;BME280;58785;55.566;38.058;2023-04-07T05:11:11;101282.88;;;8.30;49.97
71126;BME280;58785;55.566;38.058;2023-04-07T05:13:37;101284.66;;;8.44;50.09
71126;BME280;58785;55.566;38.058;2023-04-07T05:16:03;101290.31;;;8.52;49.36
71126;BME280;58785;55.566;38.058;2023-04-07T05:18:29;101270.19;;;8.48;49.52
71126;BME280;58785;55.566;38.058;2023-04-07T05:20:54;101279.13;;;8.60;49.41
71126;BME280;58785;55.566;38.058;2023-04-07T05:23:20;101288.47;;;8.78;48.95
71126;BME280;58785;55.566;38.058;2023-04-07T05:25:46;101277.44;;;8.84;48.58
71126;BME280;58785;55.566;38.058;2023-04-07T05:28:11;101287.59;;;9.16;48.41
71126;BME280;58785;55.566;38.058;2023-04-07T05:30:37;101286.16;;;9.36;48.02
71126;BME280;58785;55.566;38.058;2023-04-07T05:33:02;101277.28;;;9.48;48.26
71126;BME280;58785;55.566;38.058;2023-04-07T05:35:28;101278.25;;;9.71;47.57
71126;BME280;58785;55.566;38.058;2023-04-07T05:37:54;101276.97;;;9.76;47.63
71126;BME280;58785;55.566;38.058;2023-04-07T05:40:21;101284.16;;;9.87;47.06
71126;BME280;58785;55.566;38.058;2023-04-07T05:42:47;101289.75;;;9.95;46.94
71126;BME280;58785;55.566;38.058;2023-04-07T05:45:13;101286.47;;;9.92;47.19
71126;BME280;58785;55.566;38.058;2023-04-07T05:47:38;101284.94;;;10.00;46.87
71126;BME280;58785;55.566;38.058;2023-04-07T05:50:06;101300.88;;;10.13;46.76
71126;BME280;58785;55.566;38.058;2023-04-07T05:52:32;101290.81;;;10.17;46.52
71126;BME280;58785;55.566;38.058;2023-04-07T05:54:58;101300.09;;;10.24;45.94
71126;BME280;58785;55.566;38.058;2023-04-07T05:57:24;101291.97;;;10.25;45.92
71126;BME280;58785;55.566;38.058;2023-04-07T05:59:52;101289.91;;;10.29;46.53
71126;BME280;58785;55.566;38.058;2023-04-07T06:02:17;101297.09;;;10.40;46.44
71126;BME280;58785;55.566;38.058;2023-04-07T06:04:43;101285.97;;;10.46;45.78
71126;BME280;58785;55.566;38.058;2023-04-07T06:07:09;101295.28;;;10.51;45.06
71126;BME280;58785;55.566;38.058;2023-04-07T06:09:35;101295.13;;;10.77;45.54
71126;BME280;58785;55.566;38.058;2023-04-07T06:12:00;101291.13;;;10.82;44.88
71126;BME280;58785;55.566;38.058;2023-04-07T06:14:29;101291.47;;;10.89;45.62
71126;BME280;58785;55.566;38.058;2023-04-07T06:16:55;101300.84;;;10.94;44.51
71126;BME280;58785;55.566;38.058;2023-04-07T06:19:20;101293.19;;;11.01;44.54
71126;BME280;58785;55.566;38.058;2023-04-07T06:21:46;101298.41;;;11.14;45.01
71126;BME280;58785;55.566;38.058;2023-04-07T06:27:53;101298.00;;;11.41;44.49
71126;BME280;58785;55.566;38.058;2023-04-07T06:30:19;101298.72;;;11.54;44.12
71126;BME280;58785;55.566;38.058;2023-04-07T06:32:45;101300.66;;;11.52;43.70
71126;BME280;58785;55.566;38.058;2023-04-07T06:35:11;101293.75;;;11.38;44.02
71126;BME280;58785;55.566;38.058;2023-04-07T06:37:36;101309.53;;;11.64;44.09
71126;BME280;58785;55.566;38.058;2023-04-07T06:40:06;101313.84;;;11.76;43.67
71126;BME280;58785;55.566;38.058;2023-04-07T06:42:32;101297.22;;;11.84;43.62
71126;BME280;58785;55.566;38.058;2023-04-07T06:44:57;101308.94;;;12.03;43.51
71126;BME280;58785;55.566;38.058;2023-04-07T06:47:23;101306.94;;;12.17;43.47
71126;BME280;58785;55.566;38.058;2023-04-07T06:49:48;101302.38;;;12.28;43.72
71126;BME280;58785;55.566;38.058;2023-04-07T06:52:14;101300.28;;;12.32;43.04
71126;BME280;58785;55.566;38.058;2023-04-07T06:54:40;101295.78;;;12.32;42.96
71126;BME280;58785;55.566;38.058;2023-04-07T06:57:06;101305.69;;;12.42;43.30
71126;BME280;58785;55.566;38.058;2023-04-07T06:59:37;101304.00;;;12.41;43.25
71126;BME280;58785;55.566;38.058;2023-04-07T07:02:02;101300.81;;;12.26;43.41
71126;BME280;58785;55.566;38.058;2023-04-07T07:04:30;101306.09;;;12.16;42.79
71126;BME280;58785;55.566;38.058;2023-04-07T07:06:56;101306.34;;;12.13;42.70
71126;BME280;58785;55.566;38.058;2023-04-07T07:09:22;101305.88;;;12.08;42.85
71126;BME280;58785;55.566;38.058;2023-04-07T07:11:50;101296.59;;;12.12;42.75
71126;BME280;58785;55.566;38.058;2023-04-07T07:14:16;101298.28;;;12.24;42.89
71126;BME280;58785;55.566;38.058;2023-04-07T07:16:41;101300.81;;;12.26;43.02
71126;BME280;58785;55.566;38.058;2023-04-07T07:19:07;101302.03;;;12.22;42.12
71126;BME280;58785;55.566;38.058;2023-04-07T07:21:33;101306.72;;;12.08;42.14
71126;BME280;58785;55.566;38.058;2023-04-07T07:23:59;101309.53;;;12.07;42.11
71126;BME280;58785;55.566;38.058;2023-04-07T07:26:25;101308.75;;;12.16;42.21
71126;BME280;58785;55.566;38.058;2023-04-07T07:28:51;101305.81;;;12.19;42.39
71126;BME280;58785;55.566;38.058;2023-04-07T07:31:17;101309.41;;;12.29;42.13
71126;BME280;58785;55.566;38.058;2023-04-07T07:33:43;101300.69;;;12.27;41.74
71126;BME280;58785;55.566;38.058;2023-04-07T07:36:10;101294.94;;;12.32;41.37
71126;BME280;58785;55.566;38.058;2023-04-07T07:38:36;101301.88;;;12.34;41.30
71126;BME280;58785;55.566;38.058;2023-04-07T07:41:02;101301.25;;;12.31;41.10
71126;BME280;58785;55.566;38.058;2023-04-07T07:43:28;101300.63;;;12.38;40.84
71126;BME280;58785;55.566;38.058;2023-04-07T07:45:54;101289.34;;;12.35;41.10
71126;BME280;58785;55.566;38.058;2023-04-07T07:48:19;101302.59;;;12.36;41.21
71126;BME280;58785;55.566;38.058;2023-04-07T07:50:45;101298.16;;;12.47;40.92
71126;BME280;58785;55.566;38.058;2023-04-07T07:53:11;101296.19;;;12.49;40.56
71126;BME280;58785;55.566;38.058;2023-04-07T07:55:37;101290.56;;;12.52;40.87
71126;BME280;58785;55.566;38.058;2023-04-07T07:58:02;101293.72;;;12.57;40.62
71126;BME280;58785;55.566;38.058;2023-04-07T08:00:28;101294.41;;;12.59;40.36
71126;BME280;58785;55.566;38.058;2023-04-07T08:02:54;101294.09;;;12.52;40.30
71126;BME280;58785;55.566;38.058;2023-04-07T08:05:20;101297.88;;;12.50;39.99
71126;BME280;58785;55.566;38.058;2023-04-07T08:07:45;101298.66;;;12.41;39.58
71126;BME280;58785;55.566;38.058;2023-04-07T08:10:12;101285.41;;;12.39;40.17
71126;BME280;58785;55.566;38.058;2023-04-07T08:12:38;101294.28;;;12.40;40.31
71126;BME280;58785;55.566;38.058;2023-04-07T08:15:04;101294.28;;;12.40;40.00
71126;BME280;58785;55.566;38.058;2023-04-07T08:17:32;101291.38;;;12.43;40.05
71126;BME280;58785;55.566;38.058;2023-04-07T08:19:57;101296.59;;;12.44;39.38
71126;BME280;58785;55.566;38.058;2023-04-07T08:22:23;101285.03;;;12.23;39.44
71126;BME280;58785;55.566;38.058;2023-04-07T08:24:49;101308.13;;;12.24;39.81
71126;BME280;58785;55.566;38.058;2023-04-07T08:27:14;101290.69;;;12.08;40.08
71126;BME280;58785;55.566;38.058;2023-04-07T08:29:40;101298.34;;;12.13;39.60
71126;BME280;58785;55.566;38.058;2023-04-07T08:32:05;101288.00;;;12.08;39.64
71126;BME280;58785;55.566;38.058;2023-04-07T08:34:31;101286.72;;;12.03;39.61
71126;BME280;58785;55.566;38.058;2023-04-07T08:36:57;101290.69;;;12.08;39.54
71126;BME280;58785;55.566;38.058;2023-04-07T08:39:23;101295.03;;;12.09;40.03
71126;BME280;58785;55.566;38.058;2023-04-07T08:41:50;101287.88;;;12.10;39.75
71126;BME280;58785;55.566;38.058;2023-04-07T08:44:16;101294.69;;;12.14;39.80
71126;BME280;58785;55.566;38.058;2023-04-07T08:46:42;101278.56;;;12.04;39.27
71126;BME280;58785;55.566;38.058;2023-04-07T08:49:09;101294.53;;;12.16;40.19
71126;BME280;58785;55.566;38.058;2023-04-07T08:51:36;101299.19;;;12.14;40.01
71126;BME280;58785;55.566;38.058;2023-04-07T08:54:09;101303.59;;;12.03;40.02
71126;BME280;58785;55.566;38.058;2023-04-07T08:56:37;101286.31;;;12.07;40.41
71126;BME280;58785;55.566;38.058;2023-04-07T08:59:06;101294.69;;;12.14;39.82
71126;BME280;58785;55.566;38.058;2023-04-07T09:01:34;101294.47;;;12.06;39.43
71126;BME280;58785;55.566;38.058;2023-04-07T09:04:04;101295.38;;;11.95;39.72
71126;BME280;58785;55.566;38.058;2023-04-07T09:06:34;101294.75;;;11.92;39.48
71126;BME280;58785;55.566;38.058;2023-04-07T09:09:01;101309.84;;;11.82;39.86
71126;BME280;58785;55.566;38.058;2023-04-07T09:11:27;101287.97;;;11.76;39.01
71126;BME280;58785;55.566;38.058;2023-04-07T09:13:54;101301.47;;;11.86;39.52
71126;BME280;58785;55.566;38.058;2023-04-07T09:16:20;101292.59;;;11.86;39.88
71126;BME280;58785;55.566;38.058;2023-04-07T09:18:46;101290.50;;;11.89;39.59
71126;BME280;58785;55.566;38.058;2023-04-07T09:21:11;101283.59;;;11.87;40.05
71126;BME280;58785;55.566;38.058;2023-04-07T09:23:39;101276.03;;;11.92;39.45
71126;BME280;58785;55.566;38.058;2023-04-07T09:28:45;101267.13;;;12.02;39.84
71126;BME280;58785;55.566;38.058;2023-04-07T09:31:11;101276.34;;;12.09;39.60
71126;BME280;58785;55.566;38.058;2023-04-07T09:33:37;101287.50;;;12.15;39.90
71126;BME280;58785;55.566;38.058;2023-04-07T09:36:04;101283.38;;;12.11;39.01
71126;BME280;58785;55.566;38.058;2023-04-07T09:38:41;101278.94;;;12.00;38.62
71126;BME280;58785;55.566;38.058;2023-04-07T09:41:09;101293.97;;;12.01;39.06
71126;BME280;58785;55.566;38.058;2023-04-07T09:43:38;101275.81;;;11.95;38.29
71126;BME280;58785;55.566;38.058;2023-04-07T09:46:14;101266.09;;;11.94;38.43
71126;BME280;58785;55.566;38.058;2023-04-07T09:48:41;101270.53;;;12.04;38.94
71126;BME280;58785;55.566;38.058;2023-04-07T09:51:10;101274.38;;;12.12;38.81
71126;BME280;58785;55.566;38.058;2023-04-07T09:53:49;101281.09;;;12.06;39.32
71126;BME280;58785;55.566;38.058;2023-04-07T09:56:20;101274.44;;;12.00;39.53
71126;BME280;58785;55.566;38.058;2023-04-07T09:58:49;101272.09;;;12.07;39.92
71126;BME280;58785;55.566;38.058;2023-04-07T10:01:20;101275.75;;;12.06;39.30
71126;BME280;58785;55.566;38.058;2023-04-07T10:03:47;101282.06;;;12.05;39.19
71126;BME280;58785;55.566;38.058;2023-04-07T10:06:13;101271.38;;;12.05;38.90
71126;BME280;58785;55.566;38.058;2023-04-07T10:08:41;101279.41;;;12.05;39.34
71126;BME280;58785;55.566;38.058;2023-04-07T10:11:08;101277.38;;;11.97;39.84
71126;BME280;58785;55.566;38.058;2023-04-07T10:13:36;101272.47;;;12.02;39.65
71126;BME280;58785;55.566;38.058;2023-04-07T10:16:04;101267.88;;;12.04;39.03
71126;BME280;58785;55.566;38.058;2023-04-07T10:18:32;101274.06;;;12.05;39.45
71126;BME280;58785;55.566;38.058;2023-04-07T10:21:02;101273.22;;;12.04;39.48
71126;BME280;58785;55.566;38.058;2023-04-07T10:23:35;101284.22;;;12.11;39.50
71126;BME280;58785;55.566;38.058;2023-04-07T10:26:05;101270.41;;;12.06;38.94
71126;BME280;58785;55.566;38.058;2023-04-07T10:28:32;101268.22;;;12.00;39.47
71126;BME280;58785;55.566;38.058;2023-04-07T10:30:59;101274.44;;;12.00;38.73
71126;BME280;58785;55.566;38.058;2023-04-07T10:33:48;101260.06;;;12.01;38.35
71126;BME280;58785;55.566;38.058;2023-04-07T10:36:17;101267.59;;;12.07;38.62
71126;BME280;58785;55.566;38.058;2023-04-07T10:41:34;101258.72;;;12.07;38.98
71126;BME280;58785;55.566;38.058;2023-04-07T10:44:06;101266.56;;;12.20;38.80
71126;BME280;58785;55.566;38.058;2023-04-07T10:49:12;101260.84;;;12.24;38.38
71126;BME280;58785;55.566;38.058;2023-04-07T10:51:38;101261.00;;;12.32;38.62
71126;BME280;58785;55.566;38.058;2023-04-07T10:54:22;101263.97;;;12.29;38.43
71126;BME280;58785;55.566;38.058;2023-04-07T10:57:13;101256.91;;;12.28;39.06
71126;BME280;58785;55.566;38.058;2023-04-07T11:02:39;101265.84;;;12.38;38.87
71126;BME280;58785;55.566;38.058;2023-04-07T11:05:05;101259.06;;;12.34;38.56
71126;BME280;58785;55.566;38.058;2023-04-07T11:07:45;101269.31;;;12.29;38.67
71126;BME280;58785;55.566;38.058;2023-04-07T11:10:12;101260.78;;;12.35;38.89
71126;BME280;58785;55.566;38.058;2023-04-07T11:12:38;101266.56;;;12.41;39.04
71126;BME280;58785;55.566;38.058;2023-04-07T11:15:19;101259.38;;;12.41;38.77
71126;BME280;58785;55.566;38.058;2023-04-07T11:17:46;101254.56;;;12.35;38.95
71126;BME280;58785;55.566;38.058;2023-04-07T11:21:02;101272.88;;;12.40;38.36
71126;BME280;58785;55.566;38.058;2023-04-07T11:23:38;101258.94;;;12.36;38.69
71126;BME280;58785;55.566;38.058;2023-04-07T11:26:04;101252.81;;;12.24;38.21
71126;BME280;58785;55.566;38.058;2023-04-07T11:28:30;101267.75;;;12.27;38.71
71126;BME280;58785;55.566;38.058;2023-04-07T11:30:56;101253.91;;;12.22;37.95
71126;BME280;58785;55.566;38.058;2023-04-07T11:33:28;101271.13;;;12.29;38.41
71126;BME280;58785;55.566;38.058;2023-04-07T11:38:23;101251.69;;;12.27;38.13
71126;BME280;58785;55.566;38.058;2023-04-07T11:40:50;101254.56;;;12.35;38.49
71126;BME280;58785;55.566;38.058;2023-04-07T11:45:42;101251.63;;;12.38;38.41
71126;BME280;58785;55.566;38.058;2023-04-07T11:48:30;101252.63;;;12.37;37.40
71126;BME280;58785;55.566;38.058;2023-04-07T11:50:56;101240.34;;;12.34;38.07
71126;BME280;58785;55.566;38.058;2023-04-07T11:56:09;101241.00;;;12.27;36.70
71126;BME280;58785;55.566;38.058;2023-04-07T11:58:36;101247.72;;;12.21;37.14
71126;BME280;58785;55.566;38.058;2023-04-07T12:01:05;101240.81;;;12.19;37.34
71126;BME280;58785;55.566;38.058;2023-04-07T12:03:34;101244.59;;;12.16;37.31
71126;BME280;58785;55.566;38.058;2023-04-07T12:06:01;101244.84;;;12.13;37.36
71126;BME280;58785;55.566;38.058;2023-04-07T12:08:41;101257.56;;;12.21;37.66
71126;BME280;58785;55.566;38.058;2023-04-07T12:11:07;101241.38;;;12.22;37.51
71126;BME280;58785;55.566;38.058;2023-04-07T12:13:35;101238.00;;;12.20;37.88
71126;BME280;58785;55.566;38.058;2023-04-07T12:16:01;101260.22;;;12.21;37.93
71126;BME280;58785;55.566;38.058;2023-04-07T12:18:27;101245.72;;;12.14;37.75
71126;BME280;58785;55.566;38.058;2023-04-07T12:20:53;101249.59;;;12.09;37.94
71126;BME280;58785;55.566;38.058;2023-04-07T12:23:19;101245.38;;;12.07;38.21
71126;BME280;58785;55.566;38.058;2023-04-07T12:25:44;101244.66;;;12.05;37.99
71126;BME280;58785;55.566;38.058;2023-04-07T12:28:10;101249.28;;;12.03;38.31
71126;BME280;58785;55.566;38.058;2023-04-07T12:30:35;101247.47;;;12.03;38.02
71126;BME280;58785;55.566;38.058;2023-04-07T12:33:01;101252.53;;;12.06;38.47
71126;BME280;58785;55.566;38.058;2023-04-07T12:35:28;101253.38;;;12.07;37.97
71126;BME280;58785;55.566;38.058;2023-04-07T12:37:55;101237.72;;;12.02;38.17
71126;BME280;58785;55.566;38.058;2023-04-07T12:40:26;101246.34;;;12.06;37.96
71126;BME280;58785;55.566;38.058;2023-04-07T12:42:53;101255.56;;;12.13;37.65
71126;BME280;58785;55.566;38.058;2023-04-07T12:45:22;101243.41;;;12.09;38.12
71126;BME280;58785;55.566;38.058;2023-04-07T12:47:48;101241.56;;;12.09;37.58
71126;BME280;58785;55.566;38.058;2023-04-07T12:50:14;101251.13;;;12.23;38.51
71126;BME280;58785;55.566;38.058;2023-04-07T12:52:40;101246.63;;;12.24;38.01
71126;BME280;58785;55.566;38.058;2023-04-07T12:55:06;101250.00;;;12.26;38.10
71126;BME280;58785;55.566;38.058;2023-04-07T12:57:32;101237.91;;;12.31;38.06
71126;BME280;58785;55.566;38.058;2023-04-07T12:59:58;101229.19;;;12.29;38.53
71126;BME280;58785;55.566;38.058;2023-04-07T13:02:23;101241.06;;;12.36;37.99
71126;BME280;58785;55.566;38.058;2023-04-07T13:04:49;101235.91;;;12.45;38.49
71126;BME280;58785;55.566;38.058;2023-04-07T13:07:15;101237.47;;;12.47;38.36
71126;BME280;58785;55.566;38.058;2023-04-07T13:09:41;101232.69;;;12.51;38.68
71126;BME280;58785;55.566;38.058;2023-04-07T13:12:10;101240.72;;;12.51;38.55